createdAt,value
2022-08-18T00:01:19.571Z,17.20
2022-08-18T00:03:56.613Z,14.60
2022-08-18T00:06:30.108Z,13.50
2022-08-18T00:09:02.278Z,14.60
2022-08-18T00:11:41.207Z,12.95
2022-08-18T00:14:21.527Z,14.98
2022-08-18T00:16:54.292Z,13.98
2022-08-18T00:19:24.782Z,15.38
2022-08-18T00:22:15.348Z,13.13
2022-08-18T00:24:48.044Z,14.35
2022-08-18T00:27:22.008Z,16.45
2022-08-18T00:29:52.955Z,13.95
2022-08-18T00:32:33.885Z,16.10
2022-08-18T00:35:13.669Z,14.50
2022-08-18T00:37:42.436Z,15.30
2022-08-18T00:40:13.872Z,15.70
2022-08-18T00:42:45.676Z,13.57
2022-08-18T00:45:21.710Z,14.27
2022-08-18T00:50:22.717Z,15.13
2022-08-18T00:53:01.695Z,14.77
2022-08-18T00:55:30.237Z,14.80
2022-08-18T00:58:08.826Z,15.98
2022-08-18T01:00:37.555Z,15.18
2022-08-18T01:03:12.302Z,15.63
2022-08-18T01:05:44.998Z,15.95
2022-08-18T01:08:15.768Z,13.73
2022-08-18T01:10:45.378Z,15.18
2022-08-18T01:13:12.828Z,17.17
2022-08-18T01:15:40.331Z,14.48
2022-08-18T01:18:30.713Z,15.80
2022-08-18T01:21:37.840Z,16.30
2022-08-18T01:24:08.246Z,16.95
2022-08-18T01:26:44.961Z,15.73
2022-08-18T01:29:18.802Z,15.63
2022-08-18T01:31:56.066Z,15.93
2022-08-18T01:34:28.423Z,15.88
2022-08-18T01:36:56.704Z,15.32
2022-08-18T01:40:59.713Z,16.48
2022-08-18T01:42:13.651Z,18.83
2022-08-18T01:44:41.885Z,18.33
2022-08-18T01:47:10.798Z,18.98
2022-08-18T01:49:43.206Z,16.40
2022-08-18T01:52:15.915Z,18.60
2022-08-18T01:54:43.535Z,16.65
2022-08-18T01:57:13.497Z,18.23
2022-08-18T01:59:42.052Z,17.95
2022-08-18T02:02:16.557Z,17.33
2022-08-18T02:04:46.699Z,16.38
2022-08-18T02:07:15.001Z,15.65
2022-08-18T02:09:43.775Z,16.50
2022-08-18T02:12:11.448Z,18.10
2022-08-18T02:14:39.451Z,16.70
2022-08-18T02:17:08.480Z,18.05
2022-08-18T02:19:42.819Z,15.73
2022-08-18T02:22:17.335Z,16.98
2022-08-18T02:24:45.324Z,17.70
2022-08-18T02:27:14.136Z,16.70
2022-08-18T02:29:41.968Z,18.10
2022-08-18T02:32:09.553Z,15.07
2022-08-18T02:34:37.192Z,17.67
2022-08-18T02:37:04.610Z,16.98
2022-08-18T02:39:35.603Z,16.20
2022-08-18T02:42:03.112Z,16.20
2022-08-18T02:44:32.040Z,17.67
2022-08-18T02:46:59.288Z,16.17
2022-08-18T02:49:26.618Z,17.17
2022-08-18T02:51:54.628Z,17.25
2022-08-18T02:54:23.331Z,20.92
2022-08-18T02:56:53.562Z,18.45
2022-08-18T02:59:27.803Z,18.00
2022-08-18T03:01:56.431Z,18.67
2022-08-18T03:04:30.434Z,19.08
2022-08-18T03:07:01.920Z,18.70
2022-08-18T03:09:30.712Z,16.70
2022-08-18T03:11:58.373Z,18.27
2022-08-18T03:14:25.976Z,17.77
2022-08-18T03:16:54.285Z,17.88
2022-08-18T03:19:29.587Z,18.15
2022-08-18T03:22:03.275Z,19.00
2022-08-18T03:24:32.199Z,20.05
2022-08-18T03:27:01.681Z,20.27
2022-08-18T03:29:32.469Z,16.98
2022-08-18T03:32:02.689Z,18.98
2022-08-18T03:34:30.322Z,18.05
2022-08-18T03:36:57.729Z,17.23
2022-08-18T03:39:27.029Z,19.50
2022-08-18T03:41:59.091Z,20.48
2022-08-18T03:44:33.784Z,19.15
2022-08-18T03:47:03.185Z,17.77
2022-08-18T03:49:33.274Z,16.75
2022-08-18T03:52:01.177Z,17.60
2022-08-18T03:54:29.440Z,18.55
2022-08-18T03:59:43.615Z,16.48
2022-08-18T04:02:11.815Z,21.13
2022-08-18T04:04:43.064Z,19.13
2022-08-18T04:07:14.331Z,17.23
2022-08-18T04:09:43.068Z,17.98
2022-08-18T04:12:16.304Z,18.00
2022-08-18T04:14:48.891Z,18.52
2022-08-18T04:17:24.442Z,18.35
2022-08-18T04:19:54.038Z,19.48
2022-08-18T04:22:21.190Z,16.92
2022-08-18T04:24:50.352Z,20.30
2022-08-18T04:27:19.579Z,18.58
2022-08-18T04:29:47.225Z,18.30
2022-08-18T04:32:14.604Z,20.25
2022-08-18T04:34:41.876Z,18.77
2022-08-18T04:37:09.795Z,17.15
2022-08-18T04:39:37.861Z,18.02
2022-08-18T04:42:06.063Z,18.95
2022-08-18T04:44:34.267Z,17.48
2022-08-18T04:47:02.025Z,16.70
2022-08-18T04:49:31.556Z,18.77
2022-08-18T04:52:37.936Z,17.20
2022-08-18T04:55:05.997Z,17.63
2022-08-18T04:57:34.875Z,17.58
2022-08-18T05:00:04.405Z,18.98
2022-08-18T05:02:33.178Z,17.20
2022-08-18T05:05:03.111Z,15.70
2022-08-18T05:07:30.458Z,17.48
2022-08-18T05:09:57.814Z,16.60
2022-08-18T05:12:26.368Z,15.20
2022-08-18T05:14:57.013Z,15.70
2022-08-18T05:17:30.030Z,15.20
2022-08-18T05:20:02.095Z,15.90
2022-08-18T05:22:31.320Z,16.48
2022-08-18T05:27:45.147Z,16.35
2022-08-18T05:30:14.544Z,16.75
2022-08-18T05:32:48.592Z,17.00
2022-08-18T05:35:26.766Z,16.30
2022-08-18T05:38:32.833Z,13.77
2022-08-18T05:41:14.327Z,13.50
2022-08-18T05:43:51.489Z,13.15
2022-08-18T05:46:25.952Z,13.88
2022-08-18T05:48:53.077Z,12.70
2022-08-18T05:51:33.099Z,13.88
2022-08-18T05:54:21.377Z,11.73
2022-08-18T05:56:52.219Z,13.48
2022-08-18T05:59:26.541Z,11.70
2022-08-18T06:02:15.998Z,12.35
2022-08-18T06:04:51.686Z,11.95
2022-08-18T06:07:27.896Z,11.88
2022-08-18T06:10:01.911Z,12.10
2022-08-18T06:12:37.429Z,13.45
2022-08-18T06:15:24.324Z,11.93
2022-08-18T06:18:06.597Z,11.27
2022-08-18T06:20:54.954Z,11.70
2022-08-18T06:23:37.596Z,10.25
2022-08-18T06:26:40.311Z,9.95
2022-08-18T06:29:42.403Z,11.38
2022-08-18T06:32:30.041Z,10.25
2022-08-18T06:35:29.758Z,10.18
2022-08-18T06:38:36.434Z,11.10
2022-08-18T06:41:40.931Z,10.85
2022-08-18T06:44:05.733Z,9.07
2022-08-18T06:46:44.906Z,8.93
2022-08-18T06:49:21.765Z,8.80
2022-08-18T06:51:49.379Z,8.93
2022-08-18T06:54:19.199Z,9.88
2022-08-18T06:56:52.090Z,9.63
2022-08-18T06:59:24.827Z,9.32
2022-08-18T07:02:14.983Z,8.20
2022-08-18T07:04:59.633Z,9.13
2022-08-18T07:07:45.195Z,9.75
2022-08-18T07:10:15.531Z,9.60
2022-08-18T07:12:42.738Z,7.60
2022-08-18T07:15:12.737Z,8.13
2022-08-18T07:17:43.464Z,7.82
2022-08-18T07:20:25.790Z,7.30
2022-08-18T07:23:08.066Z,7.88
2022-08-18T07:25:42.012Z,8.07
2022-08-18T07:28:34.107Z,9.35
2022-08-18T07:31:27.652Z,10.57
2022-08-18T07:34:18.295Z,9.75
2022-08-18T07:37:09.057Z,8.20
2022-08-18T07:39:44.105Z,9.13
2022-08-18T07:43:00.733Z,9.60
2022-08-18T07:45:46.550Z,11.00
2022-08-18T07:48:37.623Z,10.45
2022-08-18T07:51:08.648Z,10.05
2022-08-18T07:53:56.323Z,9.27
2022-08-18T07:56:37.214Z,9.27
2022-08-18T07:59:19.111Z,9.45
2022-08-18T08:01:49.945Z,9.65
2022-08-18T08:04:31.152Z,9.05
2022-08-18T08:07:25.862Z,9.65
2022-08-18T08:09:55.890Z,10.30
2022-08-18T08:12:52.173Z,9.68
2022-08-18T08:15:37.399Z,9.27
2022-08-18T08:18:14.616Z,8.77
2022-08-18T08:20:57.473Z,9.48
2022-08-18T08:23:48.402Z,9.52
2022-08-18T08:26:24.424Z,8.20
2022-08-18T08:29:00.765Z,8.23
2022-08-18T08:36:42.455Z,7.20
2022-08-18T08:39:21.323Z,7.75
2022-08-18T08:42:31.459Z,8.35
2022-08-18T08:45:10.080Z,8.48
2022-08-18T08:47:49.665Z,8.05
2022-08-18T08:50:21.823Z,7.45
2022-08-18T08:53:12.953Z,7.90
2022-08-18T08:55:50.920Z,7.70
2022-08-18T08:58:49.820Z,7.78
2022-08-18T09:01:36.836Z,8.32
2022-08-18T09:04:22.636Z,7.35
2022-08-18T09:07:01.797Z,8.00
2022-08-18T09:09:55.998Z,7.50
2022-08-18T09:12:44.799Z,7.55
2022-08-18T09:15:14.693Z,7.25
2022-08-18T09:18:00.719Z,7.15
2022-08-18T09:20:48.916Z,6.93
2022-08-18T09:23:32.164Z,6.75
2022-08-18T09:26:20.456Z,6.40
2022-08-18T09:28:58.073Z,6.78
2022-08-18T09:31:27.195Z,6.07
2022-08-18T09:34:10.596Z,6.25
2022-08-18T09:37:10.451Z,6.13
2022-08-18T09:43:06.111Z,7.25
2022-08-18T09:46:00.973Z,6.50
2022-08-18T09:48:32.033Z,5.25
2022-08-18T09:51:39.812Z,6.10
2022-08-18T09:54:20.929Z,6.60
2022-08-18T09:56:54.091Z,6.50
2022-08-18T09:59:35.469Z,5.78
2022-08-18T10:02:28.849Z,6.15
2022-08-18T10:05:31.424Z,6.63
2022-08-18T10:08:14.837Z,5.18
2022-08-18T10:11:00.484Z,5.50
2022-08-18T10:13:48.887Z,5.28
2022-08-18T10:16:51.243Z,5.35
2022-08-18T10:19:39.453Z,4.75
2022-08-18T10:22:10.677Z,5.15
2022-08-18T10:24:55.870Z,4.75
2022-08-18T10:27:55.177Z,4.90
2022-08-18T10:30:36.444Z,4.60
2022-08-18T10:33:58.740Z,4.72
2022-08-18T10:36:47.513Z,5.28
2022-08-18T10:39:45.995Z,4.75
2022-08-18T10:42:40.071Z,5.05
2022-08-18T10:45:22.152Z,4.65
2022-08-18T10:48:04.668Z,4.88
2022-08-18T10:51:08.975Z,5.10
2022-08-18T10:53:55.191Z,5.60
2022-08-18T10:56:26.896Z,4.57
2022-08-18T11:02:41.892Z,4.57
2022-08-18T11:05:12.782Z,5.13
2022-08-18T11:07:44.942Z,5.20
2022-08-18T11:10:57.739Z,5.22
2022-08-18T11:13:12.031Z,4.88
2022-08-18T11:15:57.910Z,5.45
2022-08-18T11:18:43.365Z,4.95
2022-08-18T11:21:51.638Z,4.60
2022-08-18T11:24:27.385Z,4.53
2022-08-18T11:29:40.060Z,4.22
2022-08-18T11:32:12.141Z,4.93
2022-08-18T11:34:53.044Z,4.18
2022-08-18T11:37:23.943Z,4.60
2022-08-18T11:39:54.306Z,4.50
2022-08-18T11:42:29.454Z,4.35
2022-08-18T11:45:17.904Z,4.50
2022-08-18T11:48:01.032Z,5.18
2022-08-18T11:50:30.924Z,4.97
2022-08-18T11:53:23.967Z,4.57
2022-08-18T11:56:13.532Z,5.45
2022-08-18T11:59:04.703Z,4.38
2022-08-18T12:01:41.476Z,4.60
2022-08-18T12:04:15.930Z,4.68
2022-08-18T12:06:59.444Z,4.83
2022-08-18T12:12:32.324Z,4.72
2022-08-18T12:15:22.609Z,6.30
2022-08-18T12:17:52.496Z,5.15
2022-08-18T12:20:22.583Z,5.18
2022-08-18T12:22:50.423Z,4.38
2022-08-18T12:25:24.824Z,5.28
2022-08-18T12:27:55.222Z,5.57
2022-08-18T12:30:22.398Z,5.28
2022-08-18T12:35:41.988Z,4.70
2022-08-18T12:38:26.442Z,5.30
2022-08-18T12:40:53.957Z,5.30
2022-08-18T12:43:21.509Z,4.93
2022-08-18T12:45:49.191Z,4.95
2022-08-18T12:48:16.982Z,4.97
2022-08-18T12:50:54.696Z,5.43
2022-08-18T12:56:24.878Z,5.43
2022-08-18T12:58:53.364Z,5.70
2022-08-18T13:01:20.925Z,5.03
2022-08-18T13:04:12.967Z,4.82
2022-08-18T13:07:00.216Z,5.80
2022-08-18T13:09:35.818Z,6.00
2022-08-18T13:12:19.740Z,4.82
2022-08-18T13:14:47.614Z,4.82
2022-08-18T13:17:32.639Z,5.05
2022-08-18T13:20:13.343Z,4.53
2022-08-18T13:22:41.544Z,5.15
2022-08-18T13:25:13.410Z,5.57
2022-08-18T13:28:00.821Z,4.85
2022-08-18T13:30:32.405Z,5.07
2022-08-18T13:33:05.201Z,5.32
2022-08-18T13:35:35.274Z,4.43
2022-08-18T13:38:14.399Z,5.22
2022-08-18T13:40:48.577Z,5.45
2022-08-18T13:43:18.138Z,4.97
2022-08-18T13:45:53.047Z,4.93
2022-08-18T13:48:25.464Z,4.53
2022-08-18T13:50:58.503Z,4.60
2022-08-18T13:53:28.664Z,5.43
2022-08-18T13:55:59.808Z,5.85
2022-08-18T13:58:28.503Z,4.70
2022-08-18T14:01:22.676Z,4.75
2022-08-18T14:03:47.867Z,4.45
2022-08-18T14:06:21.889Z,4.50
2022-08-18T14:08:51.850Z,5.05
2022-08-18T14:11:22.392Z,5.05
2022-08-18T14:13:53.997Z,4.63
2022-08-18T14:16:26.763Z,4.60
2022-08-18T14:19:13.908Z,4.55
2022-08-18T14:22:11.082Z,4.97
2022-08-18T14:24:59.810Z,4.63
2022-08-18T14:27:35.004Z,4.60
2022-08-18T14:30:06.820Z,4.43
2022-08-18T14:32:36.388Z,4.57
2022-08-18T14:35:24.466Z,4.30
2022-08-18T14:38:02.510Z,4.80
2022-08-18T14:40:32.602Z,4.63
2022-08-18T14:42:59.849Z,4.90
2022-08-18T14:45:35.209Z,4.65
2022-08-18T14:48:07.448Z,4.70
2022-08-18T14:50:36.112Z,4.47
2022-08-18T14:53:05.028Z,5.20
2022-08-18T14:55:32.357Z,4.32
2022-08-18T14:58:01.840Z,4.40
2022-08-18T15:00:29.110Z,5.07
2022-08-18T15:02:59.572Z,4.63
2022-08-18T15:05:33.899Z,4.53
2022-08-18T15:08:05.962Z,4.70
2022-08-18T15:10:33.769Z,4.75
2022-08-18T15:13:01.228Z,5.10
2022-08-18T15:15:51.261Z,4.70
2022-08-18T15:18:22.612Z,4.88
2022-08-18T15:21:34.987Z,5.22
2022-08-18T15:24:20.073Z,5.95
2022-08-18T15:26:51.729Z,5.13
2022-08-18T15:29:22.684Z,5.15
2022-08-18T15:31:57.955Z,5.57
2022-08-18T15:34:27.791Z,5.38
2022-08-18T15:36:57.057Z,5.97
2022-08-18T15:39:24.592Z,5.53
2022-08-18T15:41:53.495Z,5.30
2022-08-18T15:44:22.430Z,5.93
2022-08-18T15:46:53.131Z,5.43
2022-08-18T15:49:21.721Z,6.15
2022-08-18T15:51:50.682Z,5.88
2022-08-18T15:54:20.906Z,5.10
2022-08-18T15:56:58.425Z,4.70
2022-08-18T15:59:39.662Z,5.10
2022-08-18T16:02:11.745Z,4.85
2022-08-18T16:04:44.986Z,5.60
2022-08-18T16:07:17.926Z,4.97
2022-08-18T16:09:52.280Z,5.97
2022-08-18T16:12:19.599Z,7.45
2022-08-18T16:14:46.775Z,8.05
2022-08-18T16:17:23.755Z,6.85
2022-08-18T16:19:51.404Z,6.45
2022-08-18T16:22:18.616Z,5.97
2022-08-18T16:24:54.846Z,7.13
2022-08-18T16:27:22.555Z,8.93
2022-08-18T16:29:49.671Z,6.57
2022-08-18T16:32:16.893Z,6.50
2022-08-18T16:34:44.214Z,7.57
2022-08-18T16:37:11.404Z,10.55
2022-08-18T16:39:38.665Z,9.45
2022-08-18T16:42:07.725Z,6.22
2022-08-18T16:44:35.207Z,9.20
2022-08-18T16:47:05.233Z,6.15
2022-08-18T16:49:32.917Z,6.25
2022-08-18T16:52:03.512Z,6.07
2022-08-18T16:54:31.332Z,6.32
2022-08-18T16:56:59.048Z,6.07
2022-08-18T16:59:44.564Z,5.75
2022-08-18T17:02:30.818Z,6.43
2022-08-18T17:05:02.359Z,6.07
2022-08-18T17:07:32.057Z,6.85
2022-08-18T17:09:59.289Z,9.68
2022-08-18T17:12:27.720Z,8.82
2022-08-18T17:14:55.903Z,9.95
2022-08-18T17:17:23.537Z,8.75
2022-08-18T17:19:51.910Z,10.80
2022-08-18T17:22:19.350Z,7.03
2022-08-18T17:24:49.760Z,7.72
2022-08-18T17:27:27.653Z,7.80
2022-08-18T17:30:23.570Z,8.95
2022-08-18T17:32:56.285Z,6.40
2022-08-18T17:35:33.306Z,7.65
2022-08-18T17:38:29.836Z,7.07
2022-08-18T17:40:58.138Z,7.43
2022-08-18T17:43:30.176Z,7.13
2022-08-18T17:46:01.926Z,8.80
2022-08-18T17:48:41.074Z,7.97
2022-08-18T17:51:34.795Z,7.45
2022-08-18T17:54:22.022Z,11.68
2022-08-18T17:56:57.663Z,15.45
2022-08-18T18:02:29.593Z,8.27
2022-08-18T18:05:04.065Z,11.18
2022-08-18T18:07:39.833Z,9.32
2022-08-18T18:10:14.241Z,9.13
2022-08-18T18:12:41.526Z,8.57
2022-08-18T18:15:12.604Z,8.05
2022-08-18T18:17:42.776Z,7.88
2022-08-18T18:20:21.860Z,7.78
2022-08-18T18:22:49.105Z,7.70
2022-08-18T18:25:34.624Z,8.82
2022-08-18T18:28:02.627Z,8.38
2022-08-18T18:30:30.005Z,9.45
2022-08-18T18:32:59.119Z,8.38
2022-08-18T18:35:34.115Z,7.70
2022-08-18T18:38:06.012Z,7.85
2022-08-18T18:40:38.281Z,7.93
2022-08-18T18:43:41.959Z,8.05
2022-08-18T18:46:32.200Z,8.75
2022-08-18T18:49:27.440Z,9.68
2022-08-18T18:52:11.300Z,7.78
2022-08-18T18:54:59.663Z,8.98
2022-08-18T18:57:33.365Z,9.30
2022-08-18T19:00:02.812Z,9.18
2022-08-18T19:02:54.175Z,9.10
2022-08-18T19:05:52.254Z,9.93
2022-08-18T19:08:33.066Z,9.32
2022-08-18T19:11:05.330Z,11.48
2022-08-18T19:13:37.351Z,8.73
2022-08-18T19:16:28.481Z,9.95
2022-08-18T19:19:36.328Z,10.18
2022-08-18T19:22:10.032Z,8.95
2022-08-18T19:24:57.470Z,12.45
2022-08-18T19:27:33.685Z,9.80
2022-08-18T19:30:07.183Z,8.98
2022-08-18T19:32:48.166Z,9.57
2022-08-18T19:35:23.184Z,11.32
2022-08-18T19:37:50.505Z,8.30
2022-08-18T19:40:29.794Z,10.45
2022-08-18T19:43:12.582Z,9.57
2022-08-18T19:45:48.552Z,10.57
2022-08-18T19:48:28.317Z,8.98
2022-08-18T19:51:06.405Z,9.82
2022-08-18T19:54:01.312Z,9.98
2022-08-18T19:56:51.698Z,11.27
2022-08-18T19:59:57.250Z,9.00
2022-08-18T20:03:03.924Z,10.10
2022-08-18T20:05:39.192Z,8.82
2022-08-18T20:08:44.407Z,10.57
2022-08-18T20:11:53.430Z,10.00
2022-08-18T20:14:20.883Z,10.18
2022-08-18T20:17:17.828Z,8.48
2022-08-18T20:19:44.885Z,8.95
2022-08-18T20:22:33.082Z,9.63
2022-08-18T20:25:19.362Z,9.00
2022-08-18T20:27:50.975Z,8.95
2022-08-18T20:30:20.929Z,9.60
2022-08-18T20:33:13.937Z,10.02
2022-08-18T20:36:16.295Z,10.02
2022-08-18T20:38:53.188Z,10.25
2022-08-18T20:41:29.592Z,11.23
2022-08-18T20:44:37.419Z,10.00
2022-08-18T20:47:07.149Z,9.45
2022-08-18T20:50:03.948Z,10.32
2022-08-18T20:52:41.402Z,9.20
2022-08-18T20:55:38.367Z,11.57
2022-08-18T20:58:10.460Z,11.43
2022-08-18T21:00:41.509Z,10.15
2022-08-18T21:03:14.126Z,12.50
2022-08-18T21:05:43.829Z,9.90
2022-08-18T21:08:31.057Z,12.13
2022-08-18T21:11:02.893Z,11.23
2022-08-18T21:13:41.757Z,9.70
2022-08-18T21:16:13.102Z,12.60
2022-08-18T21:18:55.241Z,12.18
2022-08-18T21:21:30.511Z,10.95
2022-08-18T21:24:00.611Z,10.63
2022-08-18T21:26:31.130Z,12.02
2022-08-18T21:29:08.938Z,10.07
2022-08-18T21:31:42.439Z,11.10
2022-08-18T21:34:18.560Z,11.43
2022-08-18T21:36:53.627Z,10.80
2022-08-18T21:39:21.725Z,11.30
2022-08-18T21:41:54.412Z,10.70
2022-08-18T21:44:41.824Z,10.05
2022-08-18T21:47:19.080Z,9.95
2022-08-18T21:50:14.781Z,9.77
2022-08-18T21:52:55.027Z,10.25
2022-08-18T21:55:25.437Z,11.70
2022-08-18T21:58:14.395Z,9.48
2022-08-18T22:01:06.376Z,10.50
2022-08-18T22:03:35.725Z,9.82
2022-08-18T22:06:30.167Z,12.20
2022-08-18T22:09:33.549Z,12.82
2022-08-18T22:12:37.705Z,11.23
2022-08-18T22:15:09.405Z,10.20
2022-08-18T22:18:05.451Z,9.70
2022-08-18T22:20:52.880Z,9.38
2022-08-18T22:23:47.640Z,10.95
2022-08-18T22:26:26.545Z,10.50
2022-08-18T22:28:56.595Z,10.95
2022-08-18T22:31:26.706Z,11.43
2022-08-18T22:33:55.236Z,11.43
2022-08-18T22:36:28.429Z,12.35
2022-08-18T22:38:56.070Z,11.80
2022-08-18T22:41:23.769Z,11.05
2022-08-18T22:43:54.754Z,12.57
2022-08-18T22:46:24.890Z,10.88
2022-08-18T22:48:53.291Z,13.45
2022-08-18T22:51:24.340Z,11.85
2022-08-18T22:53:51.767Z,10.40
2022-08-18T22:56:34.610Z,11.02
2022-08-18T22:59:14.043Z,11.52
2022-08-18T23:01:46.729Z,13.23
2022-08-18T23:04:16.079Z,13.70
2022-08-18T23:06:51.169Z,11.63
2022-08-18T23:09:25.768Z,10.88
2022-08-18T23:11:57.524Z,11.15
2022-08-18T23:14:25.344Z,11.02
2022-08-18T23:16:52.964Z,12.13
2022-08-18T23:19:21.395Z,12.23
2022-08-18T23:21:49.929Z,11.38
2022-08-18T23:24:18.017Z,11.57
2022-08-18T23:26:46.024Z,11.63
2022-08-18T23:29:14.427Z,13.18
2022-08-18T23:31:43.708Z,12.25
2022-08-18T23:34:13.697Z,13.55
2022-08-18T23:36:45.274Z,12.45
2022-08-18T23:39:14.181Z,12.32
2022-08-18T23:41:41.568Z,13.98
2022-08-18T23:44:08.809Z,13.23
2022-08-18T23:46:36.176Z,11.02
2022-08-18T23:49:04.800Z,13.27
2022-08-18T23:51:42.656Z,11.40
2022-08-18T23:54:21.698Z,13.05
2022-08-18T23:56:49.284Z,14.13
2022-08-18T23:59:18.219Z,13.48
